createdAt,value
2022-11-08T00:02:23.447Z,98189.44
2022-11-08T00:04:50.171Z,98185.16
2022-11-08T00:07:35.900Z,98187.84
2022-11-08T00:10:21.183Z,98184.38
2022-11-08T00:13:06.463Z,98184.44
2022-11-08T00:15:38.582Z,98181.00
2022-11-08T00:18:07.106Z,98168.69
2022-11-08T00:20:34.074Z,98174.88
2022-11-08T00:23:00.997Z,98179.13
2022-11-08T00:25:27.654Z,98175.59
2022-11-08T00:27:54.310Z,98168.56
2022-11-08T00:30:20.959Z,98166.84
2022-11-08T00:32:47.634Z,98168.66
2022-11-08T00:35:14.457Z,98160.84
2022-11-08T00:37:41.268Z,98158.19
2022-11-08T00:40:08.398Z,98161.84
2022-11-08T00:42:35.138Z,98164.78
2022-11-08T00:45:02.160Z,98158.59
2022-11-08T00:47:28.829Z,98158.59
2022-11-08T00:49:55.497Z,98156.97
2022-11-08T00:52:22.188Z,98159.56
2022-11-08T00:54:48.824Z,98156.06
2022-11-08T00:57:15.468Z,98156.72
2022-11-08T00:59:42.092Z,98159.28
2022-11-08T01:02:08.922Z,98159.69
2022-11-08T01:04:36.196Z,98152.72
2022-11-08T01:07:02.985Z,98157.81
2022-11-08T01:09:31.114Z,98162.50
2022-11-08T01:11:57.980Z,98160.44
2022-11-08T01:14:24.691Z,98153.41
2022-11-08T01:16:52.257Z,98152.44
2022-11-08T01:19:18.980Z,98164.88
2022-11-08T01:21:45.703Z,98152.53
2022-11-08T01:24:12.376Z,98149.09
2022-11-08T01:26:39.110Z,98147.34
2022-11-08T01:29:05.771Z,98164.94
2022-11-08T01:31:32.676Z,98152.63
2022-11-08T01:33:59.977Z,98157.94
2022-11-08T01:36:28.095Z,98157.16
2022-11-08T01:38:56.156Z,98160.78
2022-11-08T01:41:25.005Z,98158.94
2022-11-08T01:43:52.763Z,98146.66
2022-11-08T01:46:19.399Z,98144.94
2022-11-08T01:48:52.374Z,98144.13
2022-11-08T01:51:23.180Z,98130.94
2022-11-08T01:53:50.933Z,98127.25
2022-11-08T01:56:18.989Z,98123.00
2022-11-08T01:58:48.121Z,98122.19
2022-11-08T02:01:14.787Z,98104.72
2022-11-08T02:03:41.730Z,98110.91
2022-11-08T02:06:09.638Z,98108.31
2022-11-08T02:08:41.525Z,98101.34
2022-11-08T02:11:11.245Z,98112.00
2022-11-08T02:13:38.974Z,98105.88
2022-11-08T02:16:14.579Z,98095.34
2022-11-08T02:18:43.900Z,98096.16
2022-11-08T02:21:20.676Z,98093.59
2022-11-08T02:23:52.213Z,98084.88
2022-11-08T02:26:24.390Z,98077.06
2022-11-08T02:28:51.452Z,98071.72
2022-11-08T02:31:20.026Z,98064.75
2022-11-08T02:33:48.179Z,98056.88
2022-11-08T02:36:20.110Z,98058.72
2022-11-08T02:38:50.307Z,98056.09
2022-11-08T02:41:16.975Z,98064.94
2022-11-08T02:43:43.613Z,98056.16
2022-11-08T02:46:10.279Z,98048.34
2022-11-08T02:48:36.956Z,98048.28
2022-11-08T02:51:03.703Z,98045.63
2022-11-08T02:53:30.400Z,98048.28
2022-11-08T02:55:57.091Z,98048.34
2022-11-08T02:58:23.801Z,98046.59
2022-11-08T03:00:50.458Z,98040.41
2022-11-08T03:03:17.036Z,98042.94
2022-11-08T03:05:43.759Z,98038.56
2022-11-08T03:08:10.491Z,98043.88
2022-11-08T03:10:37.100Z,98043.00
2022-11-08T03:13:05.408Z,98037.72
2022-11-08T03:15:33.343Z,98033.34
2022-11-08T03:18:00.187Z,98037.72
2022-11-08T03:20:32.129Z,98038.56
2022-11-08T03:23:01.259Z,98043.94
2022-11-08T03:25:28.259Z,98044.94
2022-11-08T03:27:55.239Z,98045.03
2022-11-08T03:30:22.313Z,98051.38
2022-11-08T03:32:49.936Z,98030.25
2022-11-08T03:35:17.137Z,98010.22
2022-11-08T03:37:54.431Z,98019.13
2022-11-08T03:40:21.930Z,98037.56
2022-11-08T03:42:49.004Z,98029.00
2022-11-08T03:45:16.324Z,98039.44
2022-11-08T03:47:44.835Z,98036.91
2022-11-08T03:50:12.630Z,98036.06
2022-11-08T03:52:48.381Z,98038.63
2022-11-08T03:55:16.324Z,98032.56
2022-11-08T03:57:44.826Z,98035.06
2022-11-08T04:00:13.233Z,98029.00
2022-11-08T04:02:40.568Z,98022.91
2022-11-08T04:05:09.709Z,98022.91
2022-11-08T04:07:36.791Z,98023.00
2022-11-08T04:10:08.204Z,98018.63
2022-11-08T04:12:57.202Z,98020.34
2022-11-08T04:15:24.753Z,98015.84
2022-11-08T04:18:11.335Z,98025.56
2022-11-08T04:21:01.382Z,98029.09
2022-11-08T04:23:28.653Z,98014.09
2022-11-08T04:26:01.226Z,98013.31
2022-11-08T04:28:30.558Z,98009.81
2022-11-08T04:30:59.247Z,98011.66
2022-11-08T04:33:26.622Z,98007.25
2022-11-08T04:35:53.902Z,98006.47
2022-11-08T04:38:21.804Z,98004.94
2022-11-08T04:40:48.681Z,97995.22
2022-11-08T04:43:15.335Z,97983.03
2022-11-08T04:45:41.976Z,97956.78
2022-11-08T04:48:08.729Z,97954.16
2022-11-08T04:50:36.411Z,97937.63
2022-11-08T04:53:03.231Z,97934.09
2022-11-08T04:55:29.892Z,97938.41
2022-11-08T04:57:59.855Z,97953.34
2022-11-08T05:00:26.978Z,97951.34
2022-11-08T05:02:54.181Z,97948.69
2022-11-08T05:05:21.991Z,97942.31
2022-11-08T05:07:48.829Z,97944.75
2022-11-08T05:10:15.658Z,97946.41
2022-11-08T05:12:42.452Z,97946.31
2022-11-08T05:15:09.804Z,97944.66
2022-11-08T05:17:36.538Z,97949.97
2022-11-08T05:20:23.482Z,97944.78
2022-11-08T05:23:08.772Z,97946.66
2022-11-08T05:25:39.119Z,97952.00
2022-11-08T05:28:05.794Z,97948.50
2022-11-08T05:30:32.704Z,97948.75
2022-11-08T05:32:59.377Z,97955.63
2022-11-08T05:35:26.037Z,97950.25
2022-11-08T05:37:52.658Z,97951.13
2022-11-08T05:40:19.310Z,97948.38
2022-11-08T05:42:45.975Z,97951.91
2022-11-08T05:45:12.574Z,97941.38
2022-11-08T05:47:39.247Z,97942.97
2022-11-08T05:50:06.371Z,97940.28
2022-11-08T05:52:33.245Z,97942.69
2022-11-08T05:55:00.165Z,97943.31
2022-11-08T05:57:26.836Z,97936.22
2022-11-08T05:59:53.504Z,97940.56
2022-11-08T06:02:20.310Z,97940.47
2022-11-08T06:04:47.111Z,97924.00
2022-11-08T06:07:13.733Z,97931.75
2022-11-08T06:09:40.475Z,97927.34
2022-11-08T06:12:07.937Z,97916.75
2022-11-08T06:14:34.864Z,97914.88
2022-11-08T06:17:01.628Z,97922.69
2022-11-08T06:19:28.296Z,97931.28
2022-11-08T06:21:55.062Z,97941.97
2022-11-08T06:24:21.726Z,97931.41
2022-11-08T06:26:48.498Z,97928.78
2022-11-08T06:29:15.145Z,97931.41
2022-11-08T06:31:43.214Z,97925.16
2022-11-08T06:34:10.765Z,97926.81
2022-11-08T06:36:37.550Z,97925.00
2022-11-08T06:39:04.477Z,97934.81
2022-11-08T06:41:32.200Z,97922.44
2022-11-08T06:43:59.471Z,97918.94
2022-11-08T06:46:26.349Z,97909.22
2022-11-08T06:48:53.027Z,97914.59
2022-11-08T06:51:19.910Z,97912.69
2022-11-08T06:53:46.629Z,97924.03
2022-11-08T06:56:13.403Z,97924.94
2022-11-08T06:58:40.105Z,97930.00
2022-11-08T07:01:08.697Z,97929.81
2022-11-08T07:03:35.499Z,97933.25
2022-11-08T07:06:06.853Z,97946.41
2022-11-08T07:08:34.970Z,97965.50
2022-11-08T07:11:02.427Z,97963.66
2022-11-08T07:13:29.284Z,97967.84
2022-11-08T07:16:00.151Z,97966.09
2022-11-08T07:18:28.221Z,97970.19
2022-11-08T07:21:00.093Z,97968.91
2022-11-08T07:23:27.853Z,97982.50
2022-11-08T07:25:54.970Z,97978.03
2022-11-08T07:28:21.768Z,97979.03
2022-11-08T07:30:49.002Z,97979.34
2022-11-08T07:33:17.489Z,97995.09
2022-11-08T07:35:47.133Z,97994.63
2022-11-08T07:38:14.080Z,97990.66
2022-11-08T07:40:41.086Z,97994.63
2022-11-08T07:43:12.732Z,97996.25
2022-11-08T07:45:41.512Z,98007.06
2022-11-08T07:48:12.442Z,97997.13
2022-11-08T07:50:41.401Z,97995.31
2022-11-08T07:53:08.944Z,97992.81
2022-11-08T07:55:37.483Z,97994.19
2022-11-08T07:58:04.984Z,97990.28
2022-11-08T08:00:33.362Z,97995.31
2022-11-08T08:03:01.334Z,98000.50
2022-11-08T08:05:30.824Z,97999.19
2022-11-08T08:07:58.711Z,98000.81
2022-11-08T08:10:26.515Z,97997.09
2022-11-08T08:12:53.674Z,97988.72
2022-11-08T08:15:20.491Z,97998.75
2022-11-08T08:17:47.272Z,97987.78
2022-11-08T08:20:14.205Z,97979.97
2022-11-08T08:22:45.532Z,97991.19
2022-11-08T08:25:13.214Z,97983.09
2022-11-08T08:27:40.402Z,97978.00
2022-11-08T08:30:07.645Z,97978.25
2022-11-08T08:32:34.531Z,97997.22
2022-11-08T08:35:01.208Z,97983.03
2022-11-08T08:37:28.357Z,97993.47
2022-11-08T08:39:54.985Z,98005.78
2022-11-08T08:42:21.673Z,98004.94
2022-11-08T08:44:48.400Z,98010.56
2022-11-08T08:47:15.007Z,98002.88
2022-11-08T08:49:41.731Z,98006.38
2022-11-08T08:52:08.452Z,98004.00
2022-11-08T08:54:35.201Z,98004.94
2022-11-08T08:57:01.967Z,97999.91
2022-11-08T09:02:17.257Z,97998.44
2022-11-08T09:04:44.094Z,97993.22
2022-11-08T09:07:10.907Z,97990.00
2022-11-08T09:09:37.723Z,97988.03
2022-11-08T09:12:06.317Z,97971.16
2022-11-08T09:14:34.728Z,97975.25
2022-11-08T09:17:01.536Z,97974.22
2022-11-08T09:19:28.204Z,97978.19
2022-11-08T09:21:54.928Z,97948.34
2022-11-08T09:24:21.749Z,97948.59
2022-11-08T09:26:55.138Z,97940.31
2022-11-08T09:29:21.845Z,97933.44
2022-11-08T09:31:49.762Z,97918.69
2022-11-08T09:34:19.219Z,97922.09
2022-11-08T09:36:48.795Z,97924.03
2022-11-08T09:39:16.436Z,97926.53
2022-11-08T09:41:59.794Z,97933.72
2022-11-08T09:45:00.557Z,97920.16
2022-11-08T09:47:34.698Z,97939.78
2022-11-08T09:50:15.935Z,97923.03
2022-11-08T09:52:46.001Z,97926.56
2022-11-08T09:55:26.540Z,97927.84
2022-11-08T09:58:11.892Z,97932.56
2022-11-08T10:00:40.379Z,97937.69
2022-11-08T10:03:13.246Z,97949.91
2022-11-08T10:05:43.716Z,97963.97
2022-11-08T10:08:28.575Z,97964.81
2022-11-08T10:11:13.370Z,97969.94
2022-11-08T10:13:45.877Z,97968.16
2022-11-08T10:16:29.247Z,97957.94
2022-11-08T10:19:00.252Z,97953.94
2022-11-08T10:21:52.009Z,97948.72
2022-11-08T10:24:33.669Z,97941.53
2022-11-08T10:27:00.367Z,97948.84
2022-11-08T10:29:43.685Z,97964.13
2022-11-08T10:32:24.833Z,97959.78
2022-11-08T10:35:18.674Z,97979.94
2022-11-08T10:37:49.210Z,97980.09
2022-11-08T10:40:22.385Z,97973.56
2022-11-08T10:42:59.289Z,97965.44
2022-11-08T10:45:25.959Z,97942.97
2022-11-08T10:47:53.797Z,97932.56
2022-11-08T10:50:32.062Z,97924.47
2022-11-08T10:53:02.284Z,97913.38
2022-11-08T10:55:38.360Z,97898.84
2022-11-08T10:58:27.862Z,97900.69
2022-11-08T11:01:22.697Z,97899.13
2022-11-08T11:03:52.455Z,97893.72
2022-11-08T11:06:22.127Z,97889.97
2022-11-08T11:09:00.576Z,97890.44
2022-11-08T11:11:38.046Z,97893.53
2022-11-08T11:14:09.993Z,97892.47
2022-11-08T11:16:56.188Z,97906.41
2022-11-08T11:19:24.955Z,97905.41
2022-11-08T11:21:58.115Z,97897.41
2022-11-08T11:24:25.438Z,97899.59
2022-11-08T11:27:00.654Z,97888.84
2022-11-08T11:29:30.276Z,97882.59
2022-11-08T11:31:58.612Z,97880.19
2022-11-08T11:34:35.527Z,97880.22
2022-11-08T11:37:11.011Z,97878.50
2022-11-08T11:39:49.512Z,97865.88
2022-11-08T11:42:52.287Z,97874.28
2022-11-08T11:45:24.408Z,97867.13
2022-11-08T11:47:54.302Z,97866.78
2022-11-08T11:50:34.646Z,97871.53
2022-11-08T11:53:04.974Z,97870.16
2022-11-08T11:55:43.035Z,97859.59
2022-11-08T11:58:09.687Z,97861.13
2022-11-08T12:00:42.764Z,97867.63
2022-11-08T12:03:18.971Z,97857.19
2022-11-08T12:05:48.801Z,97867.84
2022-11-08T12:08:47.540Z,97860.44
2022-11-08T12:11:23.382Z,97873.16
2022-11-08T12:14:11.647Z,97877.00
2022-11-08T12:16:44.082Z,97865.72
2022-11-08T12:19:46.321Z,97874.97
2022-11-08T12:22:37.586Z,97880.38
2022-11-08T12:25:51.022Z,97891.34
2022-11-08T12:28:50.832Z,97889.13
2022-11-08T12:31:24.128Z,97886.88
2022-11-08T12:34:35.429Z,97897.69
2022-11-08T12:37:42.951Z,97895.91
2022-11-08T12:40:28.974Z,97893.78
2022-11-08T12:43:21.610Z,97901.28
2022-11-08T12:45:57.354Z,97902.22
2022-11-08T12:48:56.202Z,97906.13
2022-11-08T12:51:44.471Z,97886.25
2022-11-08T12:54:17.116Z,97888.00
2022-11-08T12:56:48.190Z,97888.47
2022-11-08T12:59:23.894Z,97887.22
2022-11-08T13:01:52.486Z,97894.63
2022-11-08T13:04:43.424Z,97874.13
2022-11-08T13:07:51.901Z,97884.47
2022-11-08T13:10:18.471Z,97884.47
2022-11-08T13:12:48.194Z,97890.03
2022-11-08T13:15:28.426Z,97884.47
2022-11-08T13:18:07.432Z,97887.00
2022-11-08T13:20:47.566Z,97879.28
2022-11-08T13:23:31.455Z,97871.78
2022-11-08T13:26:24.225Z,97870.03
2022-11-08T13:28:52.566Z,97865.09
2022-11-08T13:31:21.976Z,97865.94
2022-11-08T13:34:07.277Z,97867.53
2022-11-08T13:36:58.816Z,97866.47
2022-11-08T13:40:00.664Z,97861.75
2022-11-08T13:42:28.874Z,97853.69
2022-11-08T13:44:55.508Z,97857.94
2022-11-08T13:47:34.519Z,97858.78
2022-11-08T13:50:29.069Z,97863.09
2022-11-08T13:53:07.591Z,97846.56
2022-11-08T13:55:44.557Z,97847.53
2022-11-08T13:58:38.867Z,97853.69
2022-11-08T14:01:07.984Z,97838.50
2022-11-08T14:03:34.602Z,97844.50
2022-11-08T14:06:13.553Z,97840.78
2022-11-08T14:08:54.446Z,97844.41
2022-11-08T14:11:43.148Z,97832.84
2022-11-08T14:14:20.767Z,97829.38
2022-11-08T14:16:58.815Z,97832.28
2022-11-08T14:19:27.314Z,97830.03
2022-11-08T14:21:58.173Z,97831.97
2022-11-08T14:24:28.845Z,97830.78
2022-11-08T14:26:55.765Z,97831.31
2022-11-08T14:29:24.353Z,97838.78
2022-11-08T14:32:09.237Z,97826.53
2022-11-08T14:34:37.707Z,97828.84
2022-11-08T14:37:11.168Z,97828.63
2022-11-08T14:39:38.091Z,97825.03
2022-11-08T14:42:18.727Z,97816.94
2022-11-08T14:44:46.277Z,97812.94
2022-11-08T14:47:28.656Z,97819.38
2022-11-08T14:49:55.484Z,97821.25
2022-11-08T14:52:29.259Z,97824.63
2022-11-08T14:55:04.063Z,97823.63
2022-11-08T14:57:36.855Z,97822.69
2022-11-08T15:00:15.161Z,97831.00
2022-11-08T15:02:44.914Z,97842.50
2022-11-08T15:05:53.783Z,97839.09
2022-11-08T15:08:25.981Z,97832.19
2022-11-08T15:11:07.702Z,97835.38
2022-11-08T15:13:45.786Z,97825.16
2022-11-08T15:16:12.932Z,97825.06
2022-11-08T15:18:43.803Z,97839.28
2022-11-08T15:21:16.426Z,97829.44
2022-11-08T15:23:45.808Z,97831.53
2022-11-08T15:26:31.636Z,97823.63
2022-11-08T15:29:02.274Z,97829.06
2022-11-08T15:31:32.818Z,97821.78
2022-11-08T15:33:59.696Z,97822.56
2022-11-08T15:36:34.213Z,97809.28
2022-11-08T15:39:02.270Z,97814.06
2022-11-08T15:41:31.037Z,97817.88
2022-11-08T15:44:20.793Z,97815.28
2022-11-08T15:46:47.764Z,97811.06
2022-11-08T15:49:16.254Z,97814.78
2022-11-08T15:51:43.015Z,97818.41
2022-11-08T15:54:09.753Z,97821.38
2022-11-08T15:56:37.000Z,97820.00
2022-11-08T15:59:04.495Z,97819.78
2022-11-08T16:01:31.246Z,97825.28
2022-11-08T16:03:57.905Z,97820.50
2022-11-08T16:06:24.605Z,97822.41
2022-11-08T16:08:51.243Z,97825.16
2022-11-08T16:11:23.163Z,97823.44
2022-11-08T16:13:51.290Z,97824.56
2022-11-08T16:16:18.566Z,97812.50
2022-11-08T16:18:45.452Z,97806.78
2022-11-08T16:21:13.677Z,97815.31
2022-11-08T16:23:41.391Z,97815.75
2022-11-08T16:26:15.017Z,97803.63
2022-11-08T16:28:41.816Z,97821.69
2022-11-08T16:31:14.052Z,97822.25
2022-11-08T16:33:42.388Z,97826.03
2022-11-08T16:36:21.097Z,97817.38
2022-11-08T16:38:58.930Z,97821.34
2022-11-08T16:41:26.262Z,97828.31
2022-11-08T16:43:53.297Z,97820.31
2022-11-08T16:46:21.505Z,97825.81
2022-11-08T16:48:53.144Z,97822.00
2022-11-08T16:51:21.546Z,97829.78
2022-11-08T16:53:49.122Z,97832.44
2022-11-08T16:56:16.212Z,97817.53
2022-11-08T16:58:43.140Z,97832.56
2022-11-08T17:01:15.325Z,97824.44
2022-11-08T17:03:42.754Z,97827.41
2022-11-08T17:06:17.851Z,97828.56
2022-11-08T17:08:45.777Z,97835.28
2022-11-08T17:11:20.004Z,97833.53
2022-11-08T17:13:47.619Z,97831.66
2022-11-08T17:16:15.865Z,97842.16
2022-11-08T17:18:42.833Z,97833.13
2022-11-08T17:21:38.252Z,97838.13
2022-11-08T17:23:59.365Z,97833.75
2022-11-08T17:26:26.684Z,97838.91
2022-11-08T17:28:56.484Z,97834.59
2022-11-08T17:31:23.188Z,97839.25
2022-11-08T17:33:49.996Z,97841.06
2022-11-08T17:36:16.749Z,97835.88
2022-11-08T17:38:43.577Z,97833.72
2022-11-08T17:41:13.003Z,97827.19
2022-11-08T17:43:40.571Z,97840.72
2022-11-08T17:46:07.754Z,97854.38
2022-11-08T17:48:35.015Z,97851.81
2022-11-08T17:51:01.781Z,97840.75
2022-11-08T17:53:28.892Z,97836.38
2022-11-08T17:55:58.515Z,97840.34
2022-11-08T17:58:25.969Z,97836.47
2022-11-08T18:00:54.480Z,97846.09
2022-11-08T18:03:21.839Z,97841.09
2022-11-08T18:05:57.594Z,97841.72
2022-11-08T18:08:27.176Z,97843.25
2022-11-08T18:10:54.399Z,97832.94
2022-11-08T18:13:22.363Z,97827.88
2022-11-08T18:15:52.256Z,97834.25
2022-11-08T18:18:19.277Z,97838.25
2022-11-08T18:20:53.061Z,97837.50
2022-11-08T18:23:20.070Z,97839.06
2022-11-08T18:25:49.082Z,97832.16
2022-11-08T18:28:16.761Z,97832.91
2022-11-08T18:30:47.806Z,97839.28
2022-11-08T18:33:19.335Z,97846.94
2022-11-08T18:35:46.778Z,97839.81
2022-11-08T18:38:13.892Z,97832.06
2022-11-08T18:40:44.171Z,97821.38
2022-11-08T18:43:10.840Z,97821.31
2022-11-08T18:45:37.853Z,97815.75
2022-11-08T18:48:04.682Z,97823.03
2022-11-08T18:50:32.398Z,97821.22
2022-11-08T18:53:03.349Z,97821.31
2022-11-08T18:55:31.701Z,97826.19
2022-11-08T18:58:00.732Z,97821.66
2022-11-08T19:00:27.861Z,97826.38
2022-11-08T19:02:54.927Z,97831.88
2022-11-08T19:05:21.681Z,97836.88
2022-11-08T19:07:48.401Z,97836.69
2022-11-08T19:10:15.153Z,97842.91
2022-11-08T19:12:42.013Z,97833.50
2022-11-08T19:15:09.121Z,97837.22
2022-11-08T19:17:36.359Z,97841.09
2022-11-08T19:20:04.612Z,97830.06
2022-11-08T19:22:31.283Z,97840.47
2022-11-08T19:24:57.911Z,97838.72
2022-11-08T19:27:24.577Z,97845.03
2022-11-08T19:29:51.385Z,97852.69
2022-11-08T19:32:18.085Z,97855.38
2022-11-08T19:34:48.173Z,97851.66
2022-11-08T19:37:14.898Z,97851.25
2022-11-08T19:39:41.730Z,97848.81
2022-11-08T19:42:08.312Z,97854.78
2022-11-08T19:44:34.966Z,97862.03
2022-11-08T19:47:01.890Z,97866.78
2022-11-08T19:49:28.757Z,97875.97
2022-11-08T19:51:55.447Z,97894.94
2022-11-08T19:54:22.166Z,97908.06
2022-11-08T19:57:05.721Z,97901.03
2022-11-08T19:59:33.267Z,97909.09
2022-11-08T20:02:00.320Z,97902.16
2022-11-08T20:04:28.079Z,97901.75
2022-11-08T20:06:55.065Z,97898.81
2022-11-08T20:09:25.964Z,97907.19
2022-11-08T20:11:55.757Z,97907.94
2022-11-08T20:14:22.419Z,97909.88
2022-11-08T20:16:53.243Z,97912.56
2022-11-08T20:19:20.593Z,97915.00
2022-11-08T20:21:47.423Z,97916.72
2022-11-08T20:24:15.224Z,97914.16
2022-11-08T20:26:42.496Z,97907.56
2022-11-08T20:29:09.650Z,97901.91
2022-11-08T20:31:37.313Z,97899.19
2022-11-08T20:34:07.250Z,97898.16
2022-11-08T20:36:37.330Z,97886.78
2022-11-08T20:39:07.790Z,97883.19
2022-11-08T20:41:37.129Z,97891.63
2022-11-08T20:44:05.229Z,97878.47
2022-11-08T20:46:33.006Z,97878.47
2022-11-08T20:49:01.023Z,97882.00
2022-11-08T20:51:30.532Z,97881.38
2022-11-08T20:53:58.877Z,97884.84
2022-11-08T20:56:26.209Z,97894.06
2022-11-08T20:58:53.673Z,97890.88
2022-11-08T21:01:22.884Z,97880.81
2022-11-08T21:03:51.062Z,97872.06
2022-11-08T21:06:20.199Z,97872.66
2022-11-08T21:09:12.130Z,97875.97
2022-11-08T21:11:35.342Z,97877.22
2022-11-08T21:14:03.056Z,97872.81
2022-11-08T21:16:34.994Z,97870.00
2022-11-08T21:19:05.686Z,97866.41
2022-11-08T21:21:33.004Z,97866.34
2022-11-08T21:23:59.742Z,97868.16
2022-11-08T21:26:26.564Z,97863.34
2022-11-08T21:28:53.771Z,97862.66
2022-11-08T21:31:20.469Z,97870.59
2022-11-08T21:33:47.473Z,97870.00
2022-11-08T21:36:14.216Z,97877.22
2022-11-08T21:38:40.892Z,97877.94
2022-11-08T21:41:09.958Z,97879.91
2022-11-08T21:43:44.714Z,97885.69
2022-11-08T21:46:20.849Z,97888.03
2022-11-08T21:48:52.515Z,97894.25
2022-11-08T21:51:19.227Z,97888.09
2022-11-08T21:53:54.039Z,97878.25
2022-11-08T21:56:23.145Z,97878.09
2022-11-08T21:58:50.273Z,97889.53
2022-11-08T22:01:17.732Z,97884.34
2022-11-08T22:03:44.602Z,97874.50
2022-11-08T22:06:11.511Z,97874.09
2022-11-08T22:08:38.271Z,97878.03
2022-11-08T22:11:05.297Z,97881.63
2022-11-08T22:13:32.528Z,97874.56
2022-11-08T22:15:59.132Z,97886.09
2022-11-08T22:18:50.263Z,97889.69
2022-11-08T22:21:30.951Z,97902.69
2022-11-08T22:23:57.601Z,97922.03
2022-11-08T22:26:24.254Z,97924.00
2022-11-08T22:28:50.947Z,97950.72
2022-11-08T22:31:17.582Z,97952.75
2022-11-08T22:33:44.377Z,97948.59
2022-11-08T22:36:11.888Z,97938.91
2022-11-08T22:38:38.907Z,97937.75
2022-11-08T22:41:06.359Z,97935.59
2022-11-08T22:43:36.269Z,97924.59
2022-11-08T22:46:03.491Z,97935.06
2022-11-08T22:48:31.364Z,97924.84
2022-11-08T22:50:58.361Z,97911.53
2022-11-08T22:53:25.063Z,97909.94
2022-11-08T22:55:51.809Z,97911.03
2022-11-08T22:58:18.449Z,97905.47
2022-11-08T23:00:45.099Z,97907.13
2022-11-08T23:03:11.804Z,97901.97
2022-11-08T23:05:38.540Z,97908.09
2022-11-08T23:08:05.556Z,97909.00
2022-11-08T23:10:32.228Z,97894.69
2022-11-08T23:13:17.793Z,97882.31
2022-11-08T23:16:03.168Z,97873.38
2022-11-08T23:18:29.783Z,97853.97
2022-11-08T23:21:15.254Z,97850.50
2022-11-08T23:24:00.479Z,97853.03
2022-11-08T23:26:46.794Z,97864.63
2022-11-08T23:29:32.123Z,97893.19
2022-11-08T23:36:30.760Z,97890.69
2022-11-08T23:38:58.070Z,97897.66
2022-11-08T23:41:43.376Z,97898.38
2022-11-08T23:44:25.284Z,97915.34
2022-11-08T23:46:58.358Z,97922.16
2022-11-08T23:49:25.868Z,97926.31
2022-11-08T23:51:52.735Z,97925.63
2022-11-08T23:54:19.718Z,97925.97
2022-11-08T23:56:47.005Z,97928.44
2022-11-08T23:59:15.312Z,97933.88
